Hot Springs National Park, Arkansas
Current Conditions -  °F | °C
As of 8:53 PM on Wednesday 22 Oct 2014 (Local Time) from KHOT Reporting Station
Clear Clear  
Wind Chill: 56°   Ceiling: Unl
Heat Index: 56°   Visibility: 10mi
Dew Point: 50°   Wind: 0mph
Humidity: 80%   Direction: NA
Pressure: 30.19"   Gusts: NA
Location:  34.5036°N, 93.055°W
Report Text: KHOT 230153Z AUTO 00000KT 10SM CLR 13/10 A3019 RMK AO2 SLP221 T01330100
Loading
Personal Weather Stations






























Interactive Weather Map
Tropical Storm Tracking
New forecast layout! Learn more

10-Day Weather Forecast

Advertisements
Track Severe Weather on mobile